createdAt,value
2019-05-29T00:01:21.888Z,13.10
2019-05-29T00:06:18.762Z,13.10
2019-05-29T00:11:18.424Z,12.90
2019-05-29T00:16:18.526Z,12.80
2019-05-29T00:21:16.111Z,12.80
2019-05-29T00:26:14.599Z,12.80
2019-05-29T00:31:10.259Z,12.60
2019-05-29T00:36:08.266Z,12.60
2019-05-29T00:41:03.941Z,12.60
2019-05-29T00:46:01.670Z,12.50
2019-05-29T00:50:57.223Z,12.50
2019-05-29T00:56:08.526Z,12.40
2019-05-29T01:01:04.265Z,12.40
2019-05-29T01:06:01.245Z,12.50
2019-05-29T01:10:57.641Z,12.50
2019-05-29T01:15:53.134Z,12.50
2019-05-29T01:20:48.670Z,12.50
2019-05-29T01:25:44.184Z,12.50
2019-05-29T01:30:42.581Z,12.50
2019-05-29T01:35:37.833Z,12.50
2019-05-29T01:40:34.561Z,12.50
2019-05-29T01:45:30.009Z,12.50
2019-05-29T01:50:25.557Z,12.40
2019-05-29T01:55:21.733Z,12.40
2019-05-29T02:00:20.100Z,12.30
2019-05-29T02:05:16.349Z,12.20
2019-05-29T02:10:12.082Z,12.30
2019-05-29T02:15:23.158Z,12.30
2019-05-29T02:20:06.167Z,12.30
2019-05-29T02:25:01.659Z,12.30
2019-05-29T02:29:58.155Z,12.30
2019-05-29T02:34:53.680Z,12.20
2019-05-29T02:39:49.113Z,12.20
2019-05-29T02:44:44.748Z,12.10
2019-05-29T02:49:40.330Z,12.10
2019-05-29T02:54:35.849Z,12.10
2019-05-29T02:59:32.104Z,12.00
2019-05-29T03:04:28.218Z,12.00
2019-05-29T03:09:24.731Z,12.00
2019-05-29T03:14:20.598Z,12.00
2019-05-29T03:19:16.050Z,12.00
2019-05-29T03:24:12.636Z,12.00
2019-05-29T03:29:08.144Z,12.00
2019-05-29T03:34:03.618Z,11.90
2019-05-29T03:38:59.072Z,12.00
2019-05-29T03:43:54.721Z,12.00
2019-05-29T03:48:50.822Z,12.00
2019-05-29T03:53:46.298Z,12.00
2019-05-29T03:58:41.764Z,12.00
2019-05-29T04:03:38.252Z,12.00
2019-05-29T04:08:35.725Z,12.00
2019-05-29T04:13:33.861Z,12.00
2019-05-29T04:18:29.743Z,12.10
2019-05-29T04:23:27.831Z,12.10
2019-05-29T04:28:23.442Z,12.10
2019-05-29T04:33:18.918Z,12.10
2019-05-29T04:38:14.426Z,12.10
2019-05-29T04:43:09.955Z,12.10
2019-05-29T04:48:05.413Z,12.10
2019-05-29T04:53:00.983Z,12.10
2019-05-29T04:57:56.442Z,12.00
2019-05-29T05:02:51.909Z,12.00
2019-05-29T05:07:47.430Z,12.00
2019-05-29T05:12:42.970Z,12.10
2019-05-29T05:17:38.404Z,12.00
2019-05-29T05:22:34.264Z,12.00
2019-05-29T05:27:30.118Z,12.00
2019-05-29T05:32:25.639Z,12.00
2019-05-29T05:37:21.115Z,12.00
2019-05-29T05:42:16.634Z,12.10
2019-05-29T05:47:12.724Z,12.10
2019-05-29T05:52:08.237Z,12.10
2019-05-29T05:57:03.744Z,12.20
2019-05-29T06:01:59.216Z,12.30
2019-05-29T06:06:54.719Z,12.30
2019-05-29T06:11:50.170Z,12.20
2019-05-29T06:16:45.743Z,12.20
2019-05-29T06:21:41.435Z,12.20
2019-05-29T06:26:36.993Z,12.20
2019-05-29T06:31:33.328Z,12.20
2019-05-29T06:36:28.918Z,12.20
2019-05-29T06:41:24.402Z,12.20
2019-05-29T06:46:19.889Z,12.20
2019-05-29T06:51:15.442Z,12.20
2019-05-29T06:56:11.097Z,12.10
2019-05-29T07:01:07.364Z,12.10
2019-05-29T07:06:03.024Z,12.00
2019-05-29T07:10:58.615Z,12.00
2019-05-29T07:15:54.106Z,12.10
2019-05-29T07:20:49.598Z,12.20
2019-05-29T07:25:45.675Z,12.30
2019-05-29T07:30:44.034Z,12.40
2019-05-29T07:35:39.286Z,12.60
2019-05-29T07:40:35.983Z,12.70
2019-05-29T07:45:31.505Z,12.80
2019-05-29T07:50:27.074Z,12.80
2019-05-29T07:55:23.782Z,12.90
2019-05-29T08:00:20.238Z,12.90
2019-05-29T08:05:16.226Z,12.80
2019-05-29T08:10:12.275Z,12.90
2019-05-29T08:15:07.805Z,12.90
2019-05-29T08:20:07.421Z,12.80
2019-05-29T08:25:01.134Z,12.80
2019-05-29T08:29:56.702Z,12.90
2019-05-29T08:34:52.261Z,13.00
2019-05-29T08:39:47.797Z,13.00
2019-05-29T08:44:43.465Z,13.10
2019-05-29T08:49:39.033Z,13.20
2019-05-29T08:54:34.495Z,13.20
2019-05-29T08:59:29.999Z,13.20
2019-05-29T09:04:26.641Z,13.20
2019-05-29T09:09:22.158Z,13.30
2019-05-29T09:14:17.658Z,13.30
2019-05-29T09:19:14.179Z,13.30
2019-05-29T09:24:09.736Z,13.30
2019-05-29T09:29:05.266Z,13.10
2019-05-29T09:34:00.757Z,13.00
2019-05-29T09:38:56.296Z,13.00
2019-05-29T09:43:59.248Z,12.90
2019-05-29T09:48:50.183Z,12.90
2019-05-29T09:53:46.043Z,12.90
2019-05-29T09:58:42.181Z,12.90
2019-05-29T10:03:37.980Z,12.70
2019-05-29T10:08:36.804Z,12.60
2019-05-29T10:13:33.508Z,12.60
2019-05-29T10:18:34.178Z,12.70
2019-05-29T10:23:30.178Z,12.80
2019-05-29T10:29:08.344Z,12.80
2019-05-29T10:34:24.592Z,12.90
2019-05-29T10:39:40.963Z,13.10
2019-05-29T10:44:59.195Z,13.20
2019-05-29T10:49:58.501Z,13.30
2019-05-29T10:54:54.997Z,13.40
2019-05-29T10:59:53.191Z,13.50
2019-05-29T11:04:53.030Z,13.50
2019-05-29T11:09:46.981Z,13.60
2019-05-29T11:14:42.954Z,13.60
2019-05-29T11:19:38.442Z,13.70
2019-05-29T11:24:36.012Z,13.80
2019-05-29T11:29:31.732Z,13.90
2019-05-29T11:34:27.215Z,13.70
2019-05-29T11:39:24.538Z,13.70
2019-05-29T11:44:20.929Z,13.70
2019-05-29T11:49:20.374Z,13.60
2019-05-29T11:54:16.179Z,13.70
2019-05-29T11:59:11.843Z,13.60
2019-05-29T12:04:23.167Z,13.50
2019-05-29T12:09:06.002Z,13.30
2019-05-29T12:14:02.558Z,13.30
2019-05-29T12:18:58.143Z,13.30
2019-05-29T12:23:53.990Z,13.40
2019-05-29T12:28:49.828Z,13.50
2019-05-29T12:33:45.467Z,13.50
2019-05-29T12:38:41.115Z,13.50
2019-05-29T12:43:37.257Z,13.40
2019-05-29T12:48:33.342Z,13.40
2019-05-29T12:53:31.186Z,13.50
2019-05-29T12:58:26.103Z,13.40
2019-05-29T13:03:21.585Z,13.50
2019-05-29T13:08:17.818Z,13.60
2019-05-29T13:13:13.754Z,13.60
2019-05-29T13:18:10.086Z,13.50
2019-05-29T13:23:07.362Z,13.50
2019-05-29T13:28:04.351Z,13.30
2019-05-29T13:33:03.618Z,13.30
2019-05-29T13:37:58.828Z,13.30
2019-05-29T13:42:56.241Z,13.30
2019-05-29T13:47:51.991Z,13.20
2019-05-29T13:52:47.527Z,13.00
2019-05-29T13:57:43.035Z,13.00
2019-05-29T14:02:39.280Z,13.20
2019-05-29T14:07:35.681Z,13.40
2019-05-29T14:12:34.117Z,13.60
2019-05-29T14:17:30.009Z,13.60
2019-05-29T14:22:26.170Z,13.50
2019-05-29T14:27:21.757Z,13.60
2019-05-29T14:32:19.401Z,13.60
2019-05-29T14:37:37.175Z,13.60
2019-05-29T14:42:32.880Z,13.80
2019-05-29T14:47:33.282Z,13.80
2019-05-29T14:52:31.922Z,13.70
2019-05-29T14:57:28.021Z,13.50
2019-05-29T15:02:25.479Z,13.40
2019-05-29T15:07:50.126Z,13.20
2019-05-29T15:13:24.298Z,13.10
2019-05-29T15:18:41.183Z,13.10
2019-05-29T15:23:40.583Z,13.20
2019-05-29T15:28:37.181Z,13.30
2019-05-29T15:33:59.591Z,13.30
2019-05-29T15:39:15.086Z,13.40
2019-05-29T15:44:22.952Z,13.30
2019-05-29T15:49:26.038Z,13.30
2019-05-29T15:54:32.931Z,13.20
2019-05-29T15:59:56.049Z,13.00
2019-05-29T16:05:19.355Z,12.80
2019-05-29T16:10:20.835Z,12.70
2019-05-29T16:15:20.852Z,12.80
2019-05-29T16:20:20.875Z,12.60
2019-05-29T16:25:37.300Z,12.50
2019-05-29T16:30:21.913Z,12.50
2019-05-29T16:35:20.197Z,12.50
2019-05-29T16:40:21.863Z,12.50
2019-05-29T16:45:20.100Z,12.40
2019-05-29T16:50:19.362Z,12.40
2019-05-29T16:55:19.237Z,12.30
2019-05-29T17:00:28.269Z,12.30
2019-05-29T17:05:31.248Z,12.20
2019-05-29T17:10:43.281Z,12.20
2019-05-29T17:15:46.103Z,12.10
2019-05-29T17:20:51.328Z,12.10
2019-05-29T17:25:48.343Z,12.10
2019-05-29T17:30:51.148Z,12.00
2019-05-29T17:35:48.090Z,12.00
2019-05-29T17:40:45.688Z,12.00
2019-05-29T17:45:44.024Z,12.00
2019-05-29T17:56:44.493Z,11.90
2019-05-29T18:02:10.985Z,11.80
2019-05-29T18:26:02.808Z,11.90
2019-05-29T18:36:23.722Z,11.90
2019-05-29T18:41:20.200Z,11.80
2019-05-29T18:46:17.238Z,11.80
2019-05-29T18:51:13.681Z,11.80
2019-05-29T18:56:09.939Z,11.70
2019-05-29T19:01:07.725Z,11.60
2019-05-29T19:06:03.347Z,11.50
2019-05-29T19:10:59.160Z,11.50
2019-05-29T19:15:54.943Z,11.50
2019-05-29T19:20:50.789Z,11.50
2019-05-29T19:25:46.517Z,11.40
2019-05-29T19:30:42.299Z,11.40
2019-05-29T19:35:38.075Z,11.40
2019-05-29T19:40:34.578Z,11.50
2019-05-29T19:45:30.591Z,11.50
2019-05-29T19:50:26.687Z,11.50
2019-05-29T19:55:22.524Z,11.50
2019-05-29T20:00:18.726Z,11.40
2019-05-29T20:05:14.761Z,11.40
2019-05-29T20:10:10.801Z,11.40
2019-05-29T20:15:07.203Z,11.40
2019-05-29T20:20:03.039Z,11.40
2019-05-29T20:24:58.732Z,11.40
2019-05-29T20:29:54.304Z,11.40
2019-05-29T20:34:50.051Z,11.40
2019-05-29T20:39:45.847Z,11.30
2019-05-29T20:44:42.964Z,11.10
2019-05-29T20:49:40.043Z,11.00
2019-05-29T20:54:35.819Z,11.00
2019-05-29T20:59:31.798Z,11.00
2019-05-29T21:04:27.615Z,11.00
2019-05-29T21:09:23.240Z,11.00
2019-05-29T21:14:18.972Z,10.90
2019-05-29T21:19:14.511Z,10.80
2019-05-29T21:24:10.047Z,10.70
2019-05-29T21:29:05.685Z,10.60
2019-05-29T21:34:01.312Z,10.60
2019-05-29T21:38:56.919Z,10.50
2019-05-29T21:43:52.518Z,10.50
2019-05-29T21:48:48.119Z,10.50
2019-05-29T21:53:43.783Z,10.50
2019-05-29T21:58:57.275Z,10.50
2019-05-29T22:03:38.233Z,10.40
2019-05-29T22:08:34.082Z,10.30
2019-05-29T22:13:30.834Z,10.30
2019-05-29T22:18:26.516Z,10.20
2019-05-29T22:23:22.081Z,10.10
2019-05-29T22:28:17.578Z,10.10
2019-05-29T22:33:14.174Z,10.00
2019-05-29T22:38:09.680Z,10.00
2019-05-29T22:43:05.226Z,10.00
2019-05-29T22:48:02.239Z,10.00
2019-05-29T22:52:59.958Z,10.00
2019-05-29T22:58:00.718Z,9.90
2019-05-29T23:02:56.323Z,9.90
2019-05-29T23:07:52.033Z,9.90
2019-05-29T23:12:47.582Z,9.90
2019-05-29T23:17:43.078Z,10.00
2019-05-29T23:22:38.724Z,10.00
2019-05-29T23:27:34.279Z,9.90
2019-05-29T23:32:29.862Z,9.90
2019-05-29T23:37:25.386Z,9.90
2019-05-29T23:42:20.866Z,9.90
2019-05-29T23:47:16.338Z,9.90
2019-05-29T23:52:11.835Z,9.80
2019-05-29T23:57:09.331Z,9.80
